sensor_id;sensor_type;location;lat;lon;timestamp;temperature;humidity
16315;DHT22;8266;52.150;4.768;2023-04-27T00:02:18;8.30;99.90
16315;DHT22;8266;52.150;4.768;2023-04-27T00:04:46;8.20;99.90
16315;DHT22;8266;52.150;4.768;2023-04-27T00:07:13;8.20;99.90
16315;DHT22;8266;52.150;4.768;2023-04-27T00:09:41;8.20;99.90
16315;DHT22;8266;52.150;4.768;2023-04-27T00:12:08;8.10;99.90
16315;DHT22;8266;52.150;4.768;2023-04-27T00:14:35;8.10;99.90
16315;DHT22;8266;52.150;4.768;2023-04-27T00:17:02;8.10;99.90
16315;DHT22;8266;52.150;4.768;2023-04-27T00:19:29;8.00;99.90
16315;DHT22;8266;52.150;4.768;2023-04-27T00:21:56;8.00;99.90
16315;DHT22;8266;52.150;4.768;2023-04-27T00:24:24;8.00;99.90
16315;DHT22;8266;52.150;4.768;2023-04-27T00:26:53;8.00;99.90
16315;DHT22;8266;52.150;4.768;2023-04-27T00:29:20;7.90;99.90
16315;DHT22;8266;52.150;4.768;2023-04-27T00:31:47;7.90;99.90
16315;DHT22;8266;52.150;4.768;2023-04-27T00:34:14;7.90;99.90
16315;DHT22;8266;52.150;4.768;2023-04-27T00:36:41;7.90;99.90
16315;DHT22;8266;52.150;4.768;2023-04-27T00:39:08;7.80;99.90
16315;DHT22;8266;52.150;4.768;2023-04-27T00:41:36;7.80;99.90
16315;DHT22;8266;52.150;4.768;2023-04-27T00:44:05;7.80;99.90
16315;DHT22;8266;52.150;4.768;2023-04-27T00:46:32;7.70;99.90
16315;DHT22;8266;52.150;4.768;2023-04-27T00:49:00;7.70;99.90
16315;DHT22;8266;52.150;4.768;2023-04-27T00:51:27;7.70;99.90
16315;DHT22;8266;52.150;4.768;2023-04-27T00:53:56;7.60;99.90
16315;DHT22;8266;52.150;4.768;2023-04-27T00:56:23;7.60;99.90
16315;DHT22;8266;52.150;4.768;2023-04-27T00:58:50;7.60;99.90
16315;DHT22;8266;52.150;4.768;2023-04-27T01:01:19;7.50;99.90
16315;DHT22;8266;52.150;4.768;2023-04-27T01:03:46;7.50;99.90
16315;DHT22;8266;52.150;4.768;2023-04-27T01:06:13;7.50;99.90
16315;DHT22;8266;52.150;4.768;2023-04-27T01:08:40;7.50;99.90
16315;DHT22;8266;52.150;4.768;2023-04-27T01:11:07;7.50;99.90
16315;DHT22;8266;52.150;4.768;2023-04-27T01:13:34;7.40;99.90
16315;DHT22;8266;52.150;4.768;2023-04-27T01:16:01;7.40;99.90
16315;DHT22;8266;52.150;4.768;2023-04-27T01:18:29;7.40;99.90
16315;DHT22;8266;52.150;4.768;2023-04-27T01:20:58;7.30;99.90
16315;DHT22;8266;52.150;4.768;2023-04-27T01:23:27;7.30;99.90
16315;DHT22;8266;52.150;4.768;2023-04-27T01:25:54;7.30;99.90
16315;DHT22;8266;52.150;4.768;2023-04-27T01:28:21;7.30;99.90
16315;DHT22;8266;52.150;4.768;2023-04-27T01:30:48;7.30;99.90
16315;DHT22;8266;52.150;4.768;2023-04-27T01:33:15;7.20;99.90
16315;DHT22;8266;52.150;4.768;2023-04-27T01:35:42;7.20;99.90
16315;DHT22;8266;52.150;4.768;2023-04-27T01:38:09;7.20;99.90
16315;DHT22;8266;52.150;4.768;2023-04-27T01:40:38;7.20;99.90
16315;DHT22;8266;52.150;4.768;2023-04-27T01:43:05;7.10;99.90
16315;DHT22;8266;52.150;4.768;2023-04-27T01:45:32;7.20;99.90
16315;DHT22;8266;52.150;4.768;2023-04-27T01:47:59;7.10;99.90
16315;DHT22;8266;52.150;4.768;2023-04-27T01:50:26;7.10;99.90
16315;DHT22;8266;52.150;4.768;2023-04-27T01:52:53;7.10;99.90
16315;DHT22;8266;52.150;4.768;2023-04-27T01:55:20;7.00;99.90
16315;DHT22;8266;52.150;4.768;2023-04-27T01:57:48;7.00;99.90
16315;DHT22;8266;52.150;4.768;2023-04-27T02:00:15;7.00;99.90
16315;DHT22;8266;52.150;4.768;2023-04-27T02:02:43;7.00;99.90
16315;DHT22;8266;52.150;4.768;2023-04-27T02:05:10;6.90;99.90
16315;DHT22;8266;52.150;4.768;2023-04-27T02:07:37;7.00;99.90
16315;DHT22;8266;52.150;4.768;2023-04-27T02:10:05;6.90;99.90
16315;DHT22;8266;52.150;4.768;2023-04-27T02:12:32;6.90;99.90
16315;DHT22;8266;52.150;4.768;2023-04-27T02:15:01;6.90;99.90
16315;DHT22;8266;52.150;4.768;2023-04-27T02:17:28;6.90;99.90
16315;DHT22;8266;52.150;4.768;2023-04-27T02:19:55;6.90;99.90
16315;DHT22;8266;52.150;4.768;2023-04-27T02:22:22;6.90;99.90
16315;DHT22;8266;52.150;4.768;2023-04-27T02:24:49;6.90;99.90
16315;DHT22;8266;52.150;4.768;2023-04-27T02:27:16;6.90;99.90
16315;DHT22;8266;52.150;4.768;2023-04-27T02:29:43;6.90;99.90
16315;DHT22;8266;52.150;4.768;2023-04-27T02:32:12;6.90;99.90
16315;DHT22;8266;52.150;4.768;2023-04-27T02:34:39;6.90;99.90
16315;DHT22;8266;52.150;4.768;2023-04-27T02:37:06;6.90;99.90
16315;DHT22;8266;52.150;4.768;2023-04-27T02:39:33;6.80;99.90
16315;DHT22;8266;52.150;4.768;2023-04-27T02:42:00;6.80;99.90
16315;DHT22;8266;52.150;4.768;2023-04-27T02:44:27;6.90;99.90
16315;DHT22;8266;52.150;4.768;2023-04-27T02:46:54;6.80;99.90
16315;DHT22;8266;52.150;4.768;2023-04-27T02:49:23;6.80;99.90
16315;DHT22;8266;52.150;4.768;2023-04-27T02:51:50;6.80;99.90
16315;DHT22;8266;52.150;4.768;2023-04-27T02:54:17;6.80;99.90
16315;DHT22;8266;52.150;4.768;2023-04-27T02:56:44;6.70;99.90
16315;DHT22;8266;52.150;4.768;2023-04-27T02:59:11;6.80;99.90
16315;DHT22;8266;52.150;4.768;2023-04-27T03:01:37;6.70;99.90
16315;DHT22;8266;52.150;4.768;2023-04-27T03:04:05;6.70;99.90
16315;DHT22;8266;52.150;4.768;2023-04-27T03:06:33;6.70;99.90
16315;DHT22;8266;52.150;4.768;2023-04-27T03:09:00;6.70;99.90
16315;DHT22;8266;52.150;4.768;2023-04-27T03:11:28;6.60;99.90
16315;DHT22;8266;52.150;4.768;2023-04-27T03:13:55;6.60;99.90
16315;DHT22;8266;52.150;4.768;2023-04-27T03:16:22;6.60;99.90
16315;DHT22;8266;52.150;4.768;2023-04-27T03:18:49;6.60;99.90
16315;DHT22;8266;52.150;4.768;2023-04-27T03:21:16;6.60;99.90
16315;DHT22;8266;52.150;4.768;2023-04-27T03:23:44;6.50;99.90
16315;DHT22;8266;52.150;4.768;2023-04-27T03:26:13;6.50;99.90
16315;DHT22;8266;52.150;4.768;2023-04-27T03:28:40;6.50;99.90
16315;DHT22;8266;52.150;4.768;2023-04-27T03:31:09;6.50;99.90
16315;DHT22;8266;52.150;4.768;2023-04-27T03:33:36;6.50;99.90
16315;DHT22;8266;52.150;4.768;2023-04-27T03:36:04;6.40;99.90
16315;DHT22;8266;52.150;4.768;2023-04-27T03:38:33;6.40;99.90
16315;DHT22;8266;52.150;4.768;2023-04-27T03:41:02;6.40;99.90
16315;DHT22;8266;52.150;4.768;2023-04-27T03:43:29;6.40;99.90
16315;DHT22;8266;52.150;4.768;2023-04-27T03:45:56;6.40;99.90
16315;DHT22;8266;52.150;4.768;2023-04-27T03:48:23;6.30;99.90
16315;DHT22;8266;52.150;4.768;2023-04-27T03:50:50;6.30;99.90
16315;DHT22;8266;52.150;4.768;2023-04-27T03:53:17;6.30;99.90
16315;DHT22;8266;52.150;4.768;2023-04-27T03:55:44;6.30;99.90
16315;DHT22;8266;52.150;4.768;2023-04-27T03:58:13;6.30;99.90
16315;DHT22;8266;52.150;4.768;2023-04-27T04:00:42;6.30;99.90
16315;DHT22;8266;52.150;4.768;2023-04-27T04:03:08;6.20;99.90
16315;DHT22;8266;52.150;4.768;2023-04-27T04:05:35;6.20;99.90
16315;DHT22;8266;52.150;4.768;2023-04-27T04:08:03;6.20;99.90
16315;DHT22;8266;52.150;4.768;2023-04-27T04:10:30;6.20;99.90
16315;DHT22;8266;52.150;4.768;2023-04-27T04:12:57;6.20;99.90
16315;DHT22;8266;52.150;4.768;2023-04-27T04:15:25;6.20;99.90
16315;DHT22;8266;52.150;4.768;2023-04-27T04:17:52;6.10;99.90
16315;DHT22;8266;52.150;4.768;2023-04-27T04:20:19;6.10;99.90
16315;DHT22;8266;52.150;4.768;2023-04-27T04:22:46;6.10;99.90
16315;DHT22;8266;52.150;4.768;2023-04-27T04:25:13;6.10;99.90
16315;DHT22;8266;52.150;4.768;2023-04-27T04:27:40;6.10;99.90
16315;DHT22;8266;52.150;4.768;2023-04-27T04:30:08;6.10;99.90
16315;DHT22;8266;52.150;4.768;2023-04-27T04:32:37;6.10;99.90
16315;DHT22;8266;52.150;4.768;2023-04-27T04:35:05;6.10;99.90
16315;DHT22;8266;52.150;4.768;2023-04-27T04:37:33;6.10;99.90
16315;DHT22;8266;52.150;4.768;2023-04-27T04:40:03;6.10;99.90
16315;DHT22;8266;52.150;4.768;2023-04-27T04:42:33;6.10;99.90
16315;DHT22;8266;52.150;4.768;2023-04-27T04:45:01;6.10;99.90
16315;DHT22;8266;52.150;4.768;2023-04-27T04:47:28;6.10;99.90
16315;DHT22;8266;52.150;4.768;2023-04-27T04:49:59;6.10;99.90
16315;DHT22;8266;52.150;4.768;2023-04-27T04:52:26;6.10;99.90
16315;DHT22;8266;52.150;4.768;2023-04-27T04:54:53;6.10;99.90
16315;DHT22;8266;52.150;4.768;2023-04-27T04:57:20;6.20;99.90
16315;DHT22;8266;52.150;4.768;2023-04-27T04:59:47;6.10;99.90
16315;DHT22;8266;52.150;4.768;2023-04-27T05:02:14;6.20;99.90
16315;DHT22;8266;52.150;4.768;2023-04-27T05:04:42;6.20;99.90
16315;DHT22;8266;52.150;4.768;2023-04-27T05:07:10;6.20;99.90
16315;DHT22;8266;52.150;4.768;2023-04-27T05:09:37;6.20;99.90
16315;DHT22;8266;52.150;4.768;2023-04-27T05:12:04;6.30;99.90
16315;DHT22;8266;52.150;4.768;2023-04-27T05:14:32;6.30;99.90
16315;DHT22;8266;52.150;4.768;2023-04-27T05:16:59;6.40;99.90
16315;DHT22;8266;52.150;4.768;2023-04-27T05:19:28;6.40;99.90
16315;DHT22;8266;52.150;4.768;2023-04-27T05:21:56;6.40;99.90
16315;DHT22;8266;52.150;4.768;2023-04-27T05:24:24;6.50;99.90
16315;DHT22;8266;52.150;4.768;2023-04-27T05:26:51;6.50;99.90
16315;DHT22;8266;52.150;4.768;2023-04-27T05:29:19;6.50;99.90
16315;DHT22;8266;52.150;4.768;2023-04-27T05:31:46;6.50;99.90
16315;DHT22;8266;52.150;4.768;2023-04-27T05:34:13;6.60;99.90
16315;DHT22;8266;52.150;4.768;2023-04-27T05:36:40;6.60;99.90
16315;DHT22;8266;52.150;4.768;2023-04-27T05:39:07;6.70;99.90
16315;DHT22;8266;52.150;4.768;2023-04-27T05:41:36;6.70;99.90
16315;DHT22;8266;52.150;4.768;2023-04-27T05:44:03;6.80;99.90
16315;DHT22;8266;52.150;4.768;2023-04-27T05:46:30;6.80;99.90
16315;DHT22;8266;52.150;4.768;2023-04-27T05:48:57;6.90;99.90
16315;DHT22;8266;52.150;4.768;2023-04-27T05:51:24;6.90;99.90
16315;DHT22;8266;52.150;4.768;2023-04-27T05:53:51;7.00;99.90
16315;DHT22;8266;52.150;4.768;2023-04-27T05:56:19;7.10;99.90
16315;DHT22;8266;52.150;4.768;2023-04-27T05:58:48;7.00;99.90
16315;DHT22;8266;52.150;4.768;2023-04-27T06:01:15;7.00;99.90
16315;DHT22;8266;52.150;4.768;2023-04-27T06:03:42;7.10;99.90
16315;DHT22;8266;52.150;4.768;2023-04-27T06:06:09;7.10;99.90
16315;DHT22;8266;52.150;4.768;2023-04-27T06:08:36;7.10;99.90
16315;DHT22;8266;52.150;4.768;2023-04-27T06:11:04;7.20;99.90
16315;DHT22;8266;52.150;4.768;2023-04-27T06:13:31;7.30;99.90
16315;DHT22;8266;52.150;4.768;2023-04-27T06:16:00;7.20;99.90
16315;DHT22;8266;52.150;4.768;2023-04-27T06:18:27;7.30;99.90
16315;DHT22;8266;52.150;4.768;2023-04-27T06:20:58;7.40;99.90
16315;DHT22;8266;52.150;4.768;2023-04-27T06:23:26;7.40;99.90
16315;DHT22;8266;52.150;4.768;2023-04-27T06:25:53;7.50;99.90
16315;DHT22;8266;52.150;4.768;2023-04-27T06:28:20;7.50;99.90
16315;DHT22;8266;52.150;4.768;2023-04-27T06:30:47;7.50;99.90
16315;DHT22;8266;52.150;4.768;2023-04-27T06:33:16;7.60;99.90
16315;DHT22;8266;52.150;4.768;2023-04-27T06:35:43;7.70;99.90
16315;DHT22;8266;52.150;4.768;2023-04-27T06:38:10;7.80;99.90
16315;DHT22;8266;52.150;4.768;2023-04-27T06:40:37;7.80;99.90
16315;DHT22;8266;52.150;4.768;2023-04-27T06:43:04;7.90;99.90
16315;DHT22;8266;52.150;4.768;2023-04-27T06:45:31;8.00;99.90
16315;DHT22;8266;52.150;4.768;2023-04-27T06:47:58;8.10;99.90
16315;DHT22;8266;52.150;4.768;2023-04-27T06:50:27;8.30;99.90
16315;DHT22;8266;52.150;4.768;2023-04-27T06:52:55;8.50;99.90
16315;DHT22;8266;52.150;4.768;2023-04-27T06:55:22;8.90;99.90
16315;DHT22;8266;52.150;4.768;2023-04-27T06:57:49;9.40;99.90
16315;DHT22;8266;52.150;4.768;2023-04-27T07:00:16;9.80;99.90
16315;DHT22;8266;52.150;4.768;2023-04-27T07:02:44;10.20;99.90
16315;DHT22;8266;52.150;4.768;2023-04-27T07:05:11;10.60;99.90
16315;DHT22;8266;52.150;4.768;2023-04-27T07:07:39;11.00;99.90
16315;DHT22;8266;52.150;4.768;2023-04-27T07:10:07;11.30;99.90
16315;DHT22;8266;52.150;4.768;2023-04-27T07:12:34;11.60;99.90
16315;DHT22;8266;52.150;4.768;2023-04-27T07:15:01;11.90;99.90
16315;DHT22;8266;52.150;4.768;2023-04-27T07:17:31;12.20;99.90
16315;DHT22;8266;52.150;4.768;2023-04-27T07:19:58;12.50;99.90
16315;DHT22;8266;52.150;4.768;2023-04-27T07:22:25;12.70;99.90
16315;DHT22;8266;52.150;4.768;2023-04-27T07:24:54;13.00;99.90
16315;DHT22;8266;52.150;4.768;2023-04-27T07:27:21;13.30;99.90
16315;DHT22;8266;52.150;4.768;2023-04-27T07:29:49;13.60;99.90
16315;DHT22;8266;52.150;4.768;2023-04-27T07:32:16;13.90;99.90
16315;DHT22;8266;52.150;4.768;2023-04-27T07:34:43;14.30;99.90
16315;DHT22;8266;52.150;4.768;2023-04-27T07:37:10;14.50;99.90
16315;DHT22;8266;52.150;4.768;2023-04-27T07:39:37;14.80;99.90
16315;DHT22;8266;52.150;4.768;2023-04-27T07:42:05;15.10;99.90
16315;DHT22;8266;52.150;4.768;2023-04-27T07:44:32;15.40;99.90
16315;DHT22;8266;52.150;4.768;2023-04-27T07:46:59;15.70;99.90
16315;DHT22;8266;52.150;4.768;2023-04-27T07:49:28;15.90;99.90
16315;DHT22;8266;52.150;4.768;2023-04-27T07:51:55;16.10;99.90
16315;DHT22;8266;52.150;4.768;2023-04-27T07:54:22;16.20;99.90
16315;DHT22;8266;52.150;4.768;2023-04-27T07:56:49;16.20;99.90
16315;DHT22;8266;52.150;4.768;2023-04-27T07:59:17;16.30;99.90
16315;DHT22;8266;52.150;4.768;2023-04-27T08:01:44;16.20;99.90
16315;DHT22;8266;52.150;4.768;2023-04-27T08:04:12;16.20;99.90
16315;DHT22;8266;52.150;4.768;2023-04-27T08:06:40;16.20;99.90
16315;DHT22;8266;52.150;4.768;2023-04-27T08:09:07;16.10;99.90
16315;DHT22;8266;52.150;4.768;2023-04-27T08:11:34;16.00;99.90
16315;DHT22;8266;52.150;4.768;2023-04-27T08:14:01;15.90;99.90
16315;DHT22;8266;52.150;4.768;2023-04-27T08:16:30;15.80;99.90
16315;DHT22;8266;52.150;4.768;2023-04-27T08:18:57;15.80;99.90
16315;DHT22;8266;52.150;4.768;2023-04-27T08:21:24;15.80;99.90
16315;DHT22;8266;52.150;4.768;2023-04-27T08:23:53;15.80;99.90
16315;DHT22;8266;52.150;4.768;2023-04-27T08:26:20;15.90;99.90
16315;DHT22;8266;52.150;4.768;2023-04-27T08:28:46;16.00;99.90
16315;DHT22;8266;52.150;4.768;2023-04-27T08:31:14;16.10;99.90
16315;DHT22;8266;52.150;4.768;2023-04-27T08:33:42;16.10;99.90
16315;DHT22;8266;52.150;4.768;2023-04-27T08:36:09;16.10;99.90
16315;DHT22;8266;52.150;4.768;2023-04-27T08:38:36;16.10;99.90
16315;DHT22;8266;52.150;4.768;2023-04-27T08:41:03;16.10;99.90
16315;DHT22;8266;52.150;4.768;2023-04-27T08:43:33;16.10;99.90
16315;DHT22;8266;52.150;4.768;2023-04-27T08:46:01;16.10;99.90
16315;DHT22;8266;52.150;4.768;2023-04-27T08:48:28;16.10;99.90
16315;DHT22;8266;52.150;4.768;2023-04-27T08:50:58;16.20;99.90
16315;DHT22;8266;52.150;4.768;2023-04-27T08:53:27;16.30;99.90
16315;DHT22;8266;52.150;4.768;2023-04-27T08:55:55;16.30;99.90
16315;DHT22;8266;52.150;4.768;2023-04-27T08:58:34;16.40;99.90
16315;DHT22;8266;52.150;4.768;2023-04-27T09:01:04;16.40;99.90
16315;DHT22;8266;52.150;4.768;2023-04-27T09:03:33;16.50;99.90
16315;DHT22;8266;52.150;4.768;2023-04-27T09:06:02;16.50;99.90
16315;DHT22;8266;52.150;4.768;2023-04-27T09:08:40;16.60;99.90
16315;DHT22;8266;52.150;4.768;2023-04-27T09:11:07;16.60;99.90
16315;DHT22;8266;52.150;4.768;2023-04-27T09:13:34;16.70;99.90
16315;DHT22;8266;52.150;4.768;2023-04-27T09:16:02;16.80;99.90
16315;DHT22;8266;52.150;4.768;2023-04-27T09:18:29;16.80;99.90
16315;DHT22;8266;52.150;4.768;2023-04-27T09:20:59;16.80;99.90
16315;DHT22;8266;52.150;4.768;2023-04-27T09:23:28;16.90;99.90
16315;DHT22;8266;52.150;4.768;2023-04-27T09:25:57;16.90;99.90
16315;DHT22;8266;52.150;4.768;2023-04-27T09:28:25;16.90;99.90
16315;DHT22;8266;52.150;4.768;2023-04-27T09:30:53;17.00;99.90
16315;DHT22;8266;52.150;4.768;2023-04-27T09:33:25;17.10;99.90
16315;DHT22;8266;52.150;4.768;2023-04-27T09:35:52;17.10;99.90
16315;DHT22;8266;52.150;4.768;2023-04-27T09:38:20;17.20;99.90
16315;DHT22;8266;52.150;4.768;2023-04-27T09:40:50;17.20;99.90
16315;DHT22;8266;52.150;4.768;2023-04-27T09:43:17;17.30;99.90
16315;DHT22;8266;52.150;4.768;2023-04-27T09:45:44;17.40;99.90
16315;DHT22;8266;52.150;4.768;2023-04-27T09:48:15;17.60;99.90
16315;DHT22;8266;52.150;4.768;2023-04-27T09:50:44;17.70;99.90
16315;DHT22;8266;52.150;4.768;2023-04-27T09:53:13;18.00;99.90
16315;DHT22;8266;52.150;4.768;2023-04-27T09:55:45;18.10;99.90
16315;DHT22;8266;52.150;4.768;2023-04-27T09:58:42;18.30;99.90
16315;DHT22;8266;52.150;4.768;2023-04-27T10:01:17;18.40;90.30
16315;DHT22;8266;52.150;4.768;2023-04-27T10:03:59;18.60;99.20
16315;DHT22;8266;52.150;4.768;2023-04-27T10:06:55;18.60;99.90
16315;DHT22;8266;52.150;4.768;2023-04-27T10:09:23;18.70;99.90
16315;DHT22;8266;52.150;4.768;2023-04-27T10:11:51;18.80;99.90
16315;DHT22;8266;52.150;4.768;2023-04-27T10:14:21;19.00;99.90
16315;DHT22;8266;52.150;4.768;2023-04-27T10:16:50;19.10;99.70
16315;DHT22;8266;52.150;4.768;2023-04-27T10:19:18;19.20;97.10
16315;DHT22;8266;52.150;4.768;2023-04-27T10:21:53;19.20;96.10
16315;DHT22;8266;52.150;4.768;2023-04-27T10:24:31;19.20;94.40
16315;DHT22;8266;52.150;4.768;2023-04-27T10:27:01;19.20;96.60
16315;DHT22;8266;52.150;4.768;2023-04-27T10:29:42;19.20;95.80
16315;DHT22;8266;52.150;4.768;2023-04-27T10:32:10;19.20;93.00
16315;DHT22;8266;52.150;4.768;2023-04-27T10:34:38;19.20;94.70
16315;DHT22;8266;52.150;4.768;2023-04-27T10:37:07;19.10;94.60
16315;DHT22;8266;52.150;4.768;2023-04-27T10:39:35;19.10;96.30
16315;DHT22;8266;52.150;4.768;2023-04-27T10:42:03;19.20;96.90
16315;DHT22;8266;52.150;4.768;2023-04-27T10:44:32;19.20;98.10
16315;DHT22;8266;52.150;4.768;2023-04-27T10:47:01;19.30;95.30
16315;DHT22;8266;52.150;4.768;2023-04-27T10:49:38;19.40;94.70
16315;DHT22;8266;52.150;4.768;2023-04-27T10:52:05;19.40;96.00
16315;DHT22;8266;52.150;4.768;2023-04-27T10:54:32;19.50;96.30
16315;DHT22;8266;52.150;4.768;2023-04-27T10:57:04;19.50;95.30
16315;DHT22;8266;52.150;4.768;2023-04-27T10:59:31;19.50;93.70
16315;DHT22;8266;52.150;4.768;2023-04-27T11:02:00;19.50;95.90
16315;DHT22;8266;52.150;4.768;2023-04-27T11:04:35;19.50;92.80
16315;DHT22;8266;52.150;4.768;2023-04-27T11:07:04;19.50;94.10
16315;DHT22;8266;52.150;4.768;2023-04-27T11:09:34;19.50;94.50
16315;DHT22;8266;52.150;4.768;2023-04-27T11:12:04;19.40;94.00
16315;DHT22;8266;52.150;4.768;2023-04-27T11:14:32;19.30;94.70
16315;DHT22;8266;52.150;4.768;2023-04-27T11:17:01;19.30;94.40
16315;DHT22;8266;52.150;4.768;2023-04-27T11:19:28;19.20;92.40
16315;DHT22;8266;52.150;4.768;2023-04-27T11:22:02;19.20;93.50
16315;DHT22;8266;52.150;4.768;2023-04-27T11:24:29;19.10;93.50
16315;DHT22;8266;52.150;4.768;2023-04-27T11:26:56;19.10;92.30
16315;DHT22;8266;52.150;4.768;2023-04-27T11:29:23;19.00;91.20
16315;DHT22;8266;52.150;4.768;2023-04-27T11:31:51;18.90;92.50
16315;DHT22;8266;52.150;4.768;2023-04-27T11:34:20;18.80;92.90
16315;DHT22;8266;52.150;4.768;2023-04-27T11:36:57;18.70;91.40
16315;DHT22;8266;52.150;4.768;2023-04-27T11:39:26;18.70;93.10
16315;DHT22;8266;52.150;4.768;2023-04-27T11:41:53;18.70;92.20
16315;DHT22;8266;52.150;4.768;2023-04-27T11:44:25;18.70;93.30
16315;DHT22;8266;52.150;4.768;2023-04-27T11:46:52;18.60;89.80
16315;DHT22;8266;52.150;4.768;2023-04-27T11:49:20;18.60;91.90
16315;DHT22;8266;52.150;4.768;2023-04-27T11:51:47;18.60;90.30
16315;DHT22;8266;52.150;4.768;2023-04-27T11:54:16;18.50;91.90
16315;DHT22;8266;52.150;4.768;2023-04-27T11:56:43;18.50;92.60
16315;DHT22;8266;52.150;4.768;2023-04-27T11:59:18;18.60;92.10
16315;DHT22;8266;52.150;4.768;2023-04-27T12:01:45;18.60;90.50
16315;DHT22;8266;52.150;4.768;2023-04-27T12:04:13;18.60;91.80
16315;DHT22;8266;52.150;4.768;2023-04-27T12:06:42;18.60;91.80
16315;DHT22;8266;52.150;4.768;2023-04-27T12:09:09;18.60;91.40
16315;DHT22;8266;52.150;4.768;2023-04-27T12:11:36;18.70;90.70
16315;DHT22;8266;52.150;4.768;2023-04-27T12:14:04;18.70;90.30
16315;DHT22;8266;52.150;4.768;2023-04-27T12:16:31;18.70;90.10
16315;DHT22;8266;52.150;4.768;2023-04-27T12:18:58;18.70;90.60
16315;DHT22;8266;52.150;4.768;2023-04-27T12:21:27;18.70;90.80
16315;DHT22;8266;52.150;4.768;2023-04-27T12:23:55;18.70;89.60
16315;DHT22;8266;52.150;4.768;2023-04-27T12:26:22;18.60;88.30
16315;DHT22;8266;52.150;4.768;2023-04-27T12:28:49;18.60;90.40
16315;DHT22;8266;52.150;4.768;2023-04-27T12:31:16;18.70;90.90
16315;DHT22;8266;52.150;4.768;2023-04-27T12:33:47;18.70;88.60
16315;DHT22;8266;52.150;4.768;2023-04-27T12:36:15;18.70;89.20
16315;DHT22;8266;52.150;4.768;2023-04-27T12:38:42;18.80;90.60
16315;DHT22;8266;52.150;4.768;2023-04-27T12:41:11;18.80;88.50
16315;DHT22;8266;52.150;4.768;2023-04-27T12:43:38;18.80;86.80
16315;DHT22;8266;52.150;4.768;2023-04-27T12:46:05;18.80;87.20
16315;DHT22;8266;52.150;4.768;2023-04-27T12:48:33;18.80;88.60
16315;DHT22;8266;52.150;4.768;2023-04-27T12:51:00;18.80;85.90
16315;DHT22;8266;52.150;4.768;2023-04-27T12:53:27;18.90;86.90
16315;DHT22;8266;52.150;4.768;2023-04-27T12:55:54;18.90;86.10
16315;DHT22;8266;52.150;4.768;2023-04-27T12:58:22;19.00;86.10
16315;DHT22;8266;52.150;4.768;2023-04-27T13:00:49;19.10;83.80
16315;DHT22;8266;52.150;4.768;2023-04-27T13:03:16;19.10;87.20
16315;DHT22;8266;52.150;4.768;2023-04-27T13:05:43;19.20;86.50
16315;DHT22;8266;52.150;4.768;2023-04-27T13:08:10;19.20;89.20
16315;DHT22;8266;52.150;4.768;2023-04-27T13:10:37;19.30;88.70
16315;DHT22;8266;52.150;4.768;2023-04-27T13:13:05;19.40;86.80
16315;DHT22;8266;52.150;4.768;2023-04-27T13:15:34;19.50;90.00
16315;DHT22;8266;52.150;4.768;2023-04-27T13:18:01;19.60;86.80
16315;DHT22;8266;52.150;4.768;2023-04-27T13:20:30;19.70;83.70
16315;DHT22;8266;52.150;4.768;2023-04-27T13:22:57;19.70;85.50
16315;DHT22;8266;52.150;4.768;2023-04-27T13:25:24;19.80;87.20
16315;DHT22;8266;52.150;4.768;2023-04-27T13:27:51;19.80;84.00
16315;DHT22;8266;52.150;4.768;2023-04-27T13:30:18;19.80;87.40
16315;DHT22;8266;52.150;4.768;2023-04-27T13:32:47;19.90;87.80
16315;DHT22;8266;52.150;4.768;2023-04-27T13:35:14;20.00;85.60
16315;DHT22;8266;52.150;4.768;2023-04-27T13:37:41;20.00;86.10
16315;DHT22;8266;52.150;4.768;2023-04-27T13:40:09;20.10;86.30
16315;DHT22;8266;52.150;4.768;2023-04-27T13:42:38;20.20;87.40
16315;DHT22;8266;52.150;4.768;2023-04-27T13:45:05;20.20;89.10
16315;DHT22;8266;52.150;4.768;2023-04-27T13:47:33;20.30;83.40
16315;DHT22;8266;52.150;4.768;2023-04-27T13:50:04;20.40;83.20
16315;DHT22;8266;52.150;4.768;2023-04-27T13:52:31;20.40;79.40
16315;DHT22;8266;52.150;4.768;2023-04-27T13:54:58;20.40;79.10
16315;DHT22;8266;52.150;4.768;2023-04-27T13:57:25;20.40;80.60
16315;DHT22;8266;52.150;4.768;2023-04-27T13:59:52;20.30;78.60
16315;DHT22;8266;52.150;4.768;2023-04-27T14:02:19;20.30;78.10
16315;DHT22;8266;52.150;4.768;2023-04-27T14:04:46;20.20;77.30
16315;DHT22;8266;52.150;4.768;2023-04-27T14:07:15;20.20;77.70
16315;DHT22;8266;52.150;4.768;2023-04-27T14:09:42;20.10;75.90
16315;DHT22;8266;52.150;4.768;2023-04-27T14:12:09;20.10;77.70
16315;DHT22;8266;52.150;4.768;2023-04-27T14:14:36;20.10;74.50
16315;DHT22;8266;52.150;4.768;2023-04-27T14:17:03;20.00;72.40
16315;DHT22;8266;52.150;4.768;2023-04-27T14:19:30;20.00;75.00
16315;DHT22;8266;52.150;4.768;2023-04-27T14:21:58;19.90;76.40
16315;DHT22;8266;52.150;4.768;2023-04-27T14:24:27;19.90;77.40
16315;DHT22;8266;52.150;4.768;2023-04-27T14:26:54;19.80;74.70
16315;DHT22;8266;52.150;4.768;2023-04-27T14:29:21;19.80;75.60
16315;DHT22;8266;52.150;4.768;2023-04-27T14:31:49;19.70;79.10
16315;DHT22;8266;52.150;4.768;2023-04-27T14:34:16;19.70;76.90
16315;DHT22;8266;52.150;4.768;2023-04-27T14:36:43;19.70;78.90
16315;DHT22;8266;52.150;4.768;2023-04-27T14:39:10;19.70;79.70
16315;DHT22;8266;52.150;4.768;2023-04-27T14:41:39;19.70;77.20
16315;DHT22;8266;52.150;4.768;2023-04-27T14:44:07;19.70;74.90
16315;DHT22;8266;52.150;4.768;2023-04-27T14:46:35;19.80;74.30
16315;DHT22;8266;52.150;4.768;2023-04-27T14:49:02;19.80;75.80
16315;DHT22;8266;52.150;4.768;2023-04-27T14:51:29;19.70;75.90
16315;DHT22;8266;52.150;4.768;2023-04-27T14:53:57;19.70;78.10
16315;DHT22;8266;52.150;4.768;2023-04-27T14:56:24;19.70;78.90
16315;DHT22;8266;52.150;4.768;2023-04-27T14:58:52;19.70;76.50
16315;DHT22;8266;52.150;4.768;2023-04-27T15:01:20;19.80;76.20
16315;DHT22;8266;52.150;4.768;2023-04-27T15:03:47;19.70;72.40
16315;DHT22;8266;52.150;4.768;2023-04-27T15:06:15;19.70;71.20
16315;DHT22;8266;52.150;4.768;2023-04-27T15:08:42;19.70;74.50
16315;DHT22;8266;52.150;4.768;2023-04-27T15:11:09;19.70;76.80
16315;DHT22;8266;52.150;4.768;2023-04-27T15:13:36;19.70;77.60
16315;DHT22;8266;52.150;4.768;2023-04-27T15:16:04;19.70;75.90
16315;DHT22;8266;52.150;4.768;2023-04-27T15:18:32;19.70;75.00
16315;DHT22;8266;52.150;4.768;2023-04-27T15:20:59;19.70;75.30
16315;DHT22;8266;52.150;4.768;2023-04-27T15:23:26;19.70;72.70
16315;DHT22;8266;52.150;4.768;2023-04-27T15:25:54;19.70;74.60
16315;DHT22;8266;52.150;4.768;2023-04-27T15:28:22;19.60;68.50
16315;DHT22;8266;52.150;4.768;2023-04-27T15:30:49;19.50;68.10
16315;DHT22;8266;52.150;4.768;2023-04-27T15:33:18;19.40;68.10
16315;DHT22;8266;52.150;4.768;2023-04-27T15:35:45;19.30;68.80
16315;DHT22;8266;52.150;4.768;2023-04-27T15:38:13;19.20;68.50
16315;DHT22;8266;52.150;4.768;2023-04-27T15:40:40;19.10;71.10
16315;DHT22;8266;52.150;4.768;2023-04-27T15:43:07;19.00;71.10
16315;DHT22;8266;52.150;4.768;2023-04-27T15:45:35;18.90;71.10
16315;DHT22;8266;52.150;4.768;2023-04-27T15:48:02;18.90;70.80
16315;DHT22;8266;52.150;4.768;2023-04-27T15:50:30;18.80;73.40
16315;DHT22;8266;52.150;4.768;2023-04-27T15:52:59;18.80;76.10
16315;DHT22;8266;52.150;4.768;2023-04-27T15:55:26;18.80;75.10
16315;DHT22;8266;52.150;4.768;2023-04-27T15:57:53;18.90;75.30